Roseburg Regional, OR

4:55 PM PST on November 24, 2014 (GMT -0800)
Roseburg Regional | Change Station
CLOSE
Current Station
Airport
Location: Roseburg,
Elevation: 525 ft
Nearby Weather Stations

Elev 525 ft 43.24 °N, 123.36 °W | Updated 1 hour ago

Overcast
Overcast
57 °F
Feels Like 57 °F
N
0
Wind Variable Wind from North

Today
High -- | Low -- °F
--% Chance of Precip.
Yesterday
High -- | Low -- °F
Precip. -- in
7:17 AM 4:42 PM
Waxing Crescent, 8% visible
Pressure 30.35 in
Visibility 10.0 miles
Clouds Scattered Clouds 4800 ft
Mostly Cloudy 8500 ft
Overcast 11000 ft
Dew Point 40 °F
Humidity 53%
Rainfall 0.00 in
Snow Depth Not available.
UV 0 out of 12
Pollen .10 out of 12
Air Quality Not available.
Flu Activity Not available.
METAR KRBG 242353Z AUTO 00000KT 10SM SCT048 BKN085 OVC110 14/04 A3034 RMK AO2 SLP275 T01390044 10144 20067 56010 TSNO

More Conditions Fewer Conditions

Pressure 30.35 in
Visibility 10.0 miles
Clouds Scattered Clouds 4800 ft
Mostly Cloudy 8500 ft
Overcast 11000 ft
Dew Point 40 °F
Humidity 53%
Rainfall 0.00 in
Snow Depth Not available.
UV 0 out of 12
Pollen .10 out of 12
Air Quality Not available.
Flu Activity Not available.
METAR KRBG 242353Z AUTO 00000KT 10SM SCT048 BKN085 OVC110 14/04 A3034 RMK AO2 SLP275 T01390044 10144 20067 56010 TSNO

More Conditions Fewer Conditions

10-Day Weather Forecast

Almanac

Astronomy

Nov. 24, 2014 Rise Set
Actual Time
Civil Twilight
Nautical Twilight
Astronomical Twilight
Moon
Length of Visible Light
Length of Day
Tomorrow will be .
, % of the Moon is Illuminated

Today's Extremes

State Highs State Lows

Community

WunderPhotos

Upload Photos

1,773,442 photos uploaded!

WunderBlogs® & News

Nearby

Air Quality

  Air Quality AQ Index Pollutant
Not available.

Snow Depth

Station Depth Elevation

Earthquake Activity

City Distance Mag. Time & Date
Minimum magnitude displayed is 2.5.

Coastal Water Temperatures

Place Temperature

Nearby Weather Stations